Alix, AR (72820)

10:57 AM CST on February 21, 2018 (GMT -0600)
Hartman Bottoms (W Johnson Co.) | | Change Station
Active Advisory: Flood Advisory Active Notice: Flood Advisory

Elev 400 ft 35.43 °N, 93.61 °W | Updated 5 seconds ago

Rain
Rain
40.6 °F
Feels Like 37 °F
N
5.6
Wind Variable Wind from ENE
Gusts 7.4 mph

Today
High -- | Low -- °F
--% Chance of Precip.
Yesterday
High -- | Low -- °F
Precip. -- in
Pressure 30.38 in
Visibility 7.0 miles
Clouds Few 1000 ft
Scattered Clouds 6500 ft
Overcast 8000 ft
Windchill 37 °F
Dew Point 38 °F
Humidity 91%
Rainfall 1.19 in
Snow Depth Not available.
6:54 AM 6:02 PM
Waxing Crescent, 32% visible
METAR KFSM 211653Z 07009KT 7SM -RA FEW010 SCT065 OVC080 04/02 A3037 RMK AO2 RAB04 SLP285 P0001 T00390022
Pressure 30.38 in
Visibility 7.0 miles
Clouds Few 1000 ft
Scattered Clouds 6500 ft
Overcast 8000 ft
Windchill 37 °F
Dew Point 38 °F
Humidity 91%
Rainfall 1.19 in
Snow Depth Not available.
6:54 AM 6:02 PM
Waxing Crescent, 32% visible
METAR KFSM 211653Z 07009KT 7SM -RA FEW010 SCT065 OVC080 04/02 A3037 RMK AO2 RAB04 SLP285 P0001 T00390022

Get Your Daily Forecast Email!

Thanks for signing up!

Be on the lookout for a verification email in your inbox.

You'll start receiving severe weather alerts in your inbox..

×

10-Day Weather Forecast

Almanac

Astronomy

Feb. 21, 2018 Rise Set
Actual Time
Civil Twilight
Nautical Twilight
Astronomical Twilight
Moon
Length of Visible Light
Length of Day
Tomorrow will be .
, % of the Moon is Illuminated

Today's Extremes

State Highs State Lows

Community

WunderPhotos

Category 6

Welcome to Category 6. This is the collective home for Weather Underground's featured writeups by Dr. Jeff Masters (right), Bob Henson (left), Chris Burt, and other regular contributors.

Nearby

Air Quality

  Air Quality AQ Index Pollutant
Not available.

Snow Depth

Station Depth Elevation

Earthquake Activity

City Distance Mag. Time & Date
Minimum magnitude displayed is 2.5.

Coastal Water Temperatures

Place Temperature

Stations

Nearby Weather Stations

Station Location Temp. Windchill Dew Point Humidity Wind Precip. Elev Updated Type
                   

Watches & Warnings

Flood Advisory
Issued: 8:15 AM CST Feb. 21, 2018 – National Weather Service

The flood advisory continues for
the Mulberry river near Mulberry
* until this evening, or until the advisory is cancelled.
* At 7:30 am Wednesday, the stage was 11.1 feet.
* Action stage is 10.0 feet.
* Flood stage is 18.0 feet.
* Forecast... the river crested this morning at 11.37 feet, which is
below flood stage. The river is falling and is expected to fall below
action stage late this afternoon.
* Impact... at 10.0 feet, no flooding occurs but the river is swift
and dangerous. Backwater from the Arkansas River may affect low lying
areas near the first few miles of the Mulberry river.


Lat... Lon 3545 9406 3561 9404 3562 9394 3557 9400 3546 9403